sensor_id;sensor_type;location;lat;lon;timestamp;P1;durP1;ratioP1;P2;durP2;ratioP2
16640;SDS011;8434;47.990;7.880;2022-09-29T00:02:28;2.43;;;1.50;;
16640;SDS011;8434;47.990;7.880;2022-09-29T00:05:13;2.50;;;1.60;;
16640;SDS011;8434;47.990;7.880;2022-09-29T00:08:00;3.27;;;1.50;;
16640;SDS011;8434;47.990;7.880;2022-09-29T00:10:45;4.10;;;1.53;;
16640;SDS011;8434;47.990;7.880;2022-09-29T00:13:30;4.63;;;1.70;;
16640;SDS011;8434;47.990;7.880;2022-09-29T00:16:15;3.67;;;1.73;;
16640;SDS011;8434;47.990;7.880;2022-09-29T00:19:00;2.67;;;1.63;;
16640;SDS011;8434;47.990;7.880;2022-09-29T00:21:45;3.37;;;1.80;;
16640;SDS011;8434;47.990;7.880;2022-09-29T00:24:31;3.03;;;1.60;;
16640;SDS011;8434;47.990;7.880;2022-09-29T00:27:17;2.27;;;1.57;;
16640;SDS011;8434;47.990;7.880;2022-09-29T00:30:03;5.87;;;1.30;;
16640;SDS011;8434;47.990;7.880;2022-09-29T00:32:48;6.00;;;1.50;;
16640;SDS011;8434;47.990;7.880;2022-09-29T00:35:33;6.30;;;1.57;;
16640;SDS011;8434;47.990;7.880;2022-09-29T00:38:18;5.60;;;1.40;;
16640;SDS011;8434;47.990;7.880;2022-09-29T00:41:04;2.30;;;1.40;;
16640;SDS011;8434;47.990;7.880;2022-09-29T00:43:51;2.67;;;1.80;;
16640;SDS011;8434;47.990;7.880;2022-09-29T00:46:38;1.70;;;1.53;;
16640;SDS011;8434;47.990;7.880;2022-09-29T00:49:25;4.67;;;1.60;;
16640;SDS011;8434;47.990;7.880;2022-09-29T00:52:12;1.53;;;1.17;;
16640;SDS011;8434;47.990;7.880;2022-09-29T00:55:00;2.27;;;1.50;;
16640;SDS011;8434;47.990;7.880;2022-09-29T00:57:49;2.07;;;1.70;;
16640;SDS011;8434;47.990;7.880;2022-09-29T01:00:36;2.03;;;1.70;;
16640;SDS011;8434;47.990;7.880;2022-09-29T01:03:21;2.57;;;1.53;;
16640;SDS011;8434;47.990;7.880;2022-09-29T01:06:08;2.03;;;1.70;;
16640;SDS011;8434;47.990;7.880;2022-09-29T01:08:55;1.97;;;1.40;;
16640;SDS011;8434;47.990;7.880;2022-09-29T01:11:42;2.07;;;1.40;;
16640;SDS011;8434;47.990;7.880;2022-09-29T01:14:29;1.53;;;1.40;;
16640;SDS011;8434;47.990;7.880;2022-09-29T01:17:15;5.87;;;1.83;;
16640;SDS011;8434;47.990;7.880;2022-09-29T01:20:02;3.37;;;1.57;;
16640;SDS011;8434;47.990;7.880;2022-09-29T01:22:59;3.90;;;1.43;;
16640;SDS011;8434;47.990;7.880;2022-09-29T01:25:55;1.80;;;1.43;;
16640;SDS011;8434;47.990;7.880;2022-09-29T01:28:53;4.00;;;1.43;;
16640;SDS011;8434;47.990;7.880;2022-09-29T01:31:46;3.17;;;1.57;;
16640;SDS011;8434;47.990;7.880;2022-09-29T01:34:38;1.67;;;1.17;;
16640;SDS011;8434;47.990;7.880;2022-09-29T01:37:27;2.27;;;1.80;;
16640;SDS011;8434;47.990;7.880;2022-09-29T01:40:15;1.50;;;1.40;;
16640;SDS011;8434;47.990;7.880;2022-09-29T01:43:02;1.30;;;1.20;;
16640;SDS011;8434;47.990;7.880;2022-09-29T01:45:49;3.03;;;1.47;;
16640;SDS011;8434;47.990;7.880;2022-09-29T01:48:38;1.50;;;1.40;;
16640;SDS011;8434;47.990;7.880;2022-09-29T01:51:24;3.00;;;1.50;;
16640;SDS011;8434;47.990;7.880;2022-09-29T01:54:14;3.53;;;2.47;;
16640;SDS011;8434;47.990;7.880;2022-09-29T01:57:02;3.10;;;1.40;;
16640;SDS011;8434;47.990;7.880;2022-09-29T01:59:53;3.30;;;1.50;;
16640;SDS011;8434;47.990;7.880;2022-09-29T02:02:39;2.70;;;1.57;;
16640;SDS011;8434;47.990;7.880;2022-09-29T02:05:30;1.50;;;1.40;;
16640;SDS011;8434;47.990;7.880;2022-09-29T02:08:17;2.50;;;1.57;;
16640;SDS011;8434;47.990;7.880;2022-09-29T02:11:07;2.83;;;1.57;;
16640;SDS011;8434;47.990;7.880;2022-09-29T02:13:53;3.50;;;1.70;;
16640;SDS011;8434;47.990;7.880;2022-09-29T02:16:39;2.97;;;1.90;;
16640;SDS011;8434;47.990;7.880;2022-09-29T02:19:25;6.13;;;1.60;;
16640;SDS011;8434;47.990;7.880;2022-09-29T02:22:14;1.87;;;1.77;;
16640;SDS011;8434;47.990;7.880;2022-09-29T02:24:59;2.13;;;1.70;;
16640;SDS011;8434;47.990;7.880;2022-09-29T02:27:45;4.53;;;1.97;;
16640;SDS011;8434;47.990;7.880;2022-09-29T02:30:31;5.20;;;1.90;;
16640;SDS011;8434;47.990;7.880;2022-09-29T02:33:17;3.30;;;1.60;;
16640;SDS011;8434;47.990;7.880;2022-09-29T02:36:05;2.27;;;1.60;;
16640;SDS011;8434;47.990;7.880;2022-09-29T02:38:56;4.63;;;1.80;;
16640;SDS011;8434;47.990;7.880;2022-09-29T02:41:47;4.13;;;1.97;;
16640;SDS011;8434;47.990;7.880;2022-09-29T02:44:38;2.00;;;1.80;;
16640;SDS011;8434;47.990;7.880;2022-09-29T02:47:30;3.43;;;1.83;;
16640;SDS011;8434;47.990;7.880;2022-09-29T02:50:23;5.90;;;1.93;;
16640;SDS011;8434;47.990;7.880;2022-09-29T02:53:11;3.10;;;2.40;;
16640;SDS011;8434;47.990;7.880;2022-09-29T02:56:03;1.80;;;1.70;;
16640;SDS011;8434;47.990;7.880;2022-09-29T02:58:53;4.47;;;1.70;;
16640;SDS011;8434;47.990;7.880;2022-09-29T03:01:46;2.20;;;1.50;;
16640;SDS011;8434;47.990;7.880;2022-09-29T03:04:32;3.97;;;1.80;;
16640;SDS011;8434;47.990;7.880;2022-09-29T03:07:16;2.23;;;1.53;;
16640;SDS011;8434;47.990;7.880;2022-09-29T03:10:01;2.27;;;1.43;;
16640;SDS011;8434;47.990;7.880;2022-09-29T03:12:48;3.00;;;1.73;;
16640;SDS011;8434;47.990;7.880;2022-09-29T03:15:33;2.23;;;1.50;;
16640;SDS011;8434;47.990;7.880;2022-09-29T03:18:18;2.13;;;1.60;;
16640;SDS011;8434;47.990;7.880;2022-09-29T03:21:05;1.47;;;1.37;;
16640;SDS011;8434;47.990;7.880;2022-09-29T03:23:50;2.00;;;1.80;;
16640;SDS011;8434;47.990;7.880;2022-09-29T03:26:35;3.77;;;1.60;;
16640;SDS011;8434;47.990;7.880;2022-09-29T03:29:32;3.10;;;2.20;;
16640;SDS011;8434;47.990;7.880;2022-09-29T03:32:17;2.00;;;1.80;;
16640;SDS011;8434;47.990;7.880;2022-09-29T03:35:02;1.83;;;1.63;;
16640;SDS011;8434;47.990;7.880;2022-09-29T03:37:47;2.90;;;1.93;;
16640;SDS011;8434;47.990;7.880;2022-09-29T03:40:32;3.93;;;2.17;;
16640;SDS011;8434;47.990;7.880;2022-09-29T03:43:17;2.63;;;1.90;;
16640;SDS011;8434;47.990;7.880;2022-09-29T03:46:03;2.17;;;2.00;;
16640;SDS011;8434;47.990;7.880;2022-09-29T03:48:49;3.10;;;1.60;;
16640;SDS011;8434;47.990;7.880;2022-09-29T03:51:34;4.20;;;2.27;;
16640;SDS011;8434;47.990;7.880;2022-09-29T03:54:18;1.87;;;1.30;;
16640;SDS011;8434;47.990;7.880;2022-09-29T03:57:03;2.07;;;1.33;;
16640;SDS011;8434;47.990;7.880;2022-09-29T03:59:48;3.90;;;1.77;;
16640;SDS011;8434;47.990;7.880;2022-09-29T04:02:34;3.33;;;1.83;;
16640;SDS011;8434;47.990;7.880;2022-09-29T04:05:19;3.20;;;1.87;;
16640;SDS011;8434;47.990;7.880;2022-09-29T04:08:04;2.10;;;1.90;;
16640;SDS011;8434;47.990;7.880;2022-09-29T04:10:50;2.93;;;1.60;;
16640;SDS011;8434;47.990;7.880;2022-09-29T04:13:34;2.13;;;1.80;;
16640;SDS011;8434;47.990;7.880;2022-09-29T04:16:19;2.63;;;2.27;;
16640;SDS011;8434;47.990;7.880;2022-09-29T04:19:06;3.13;;;2.10;;
16640;SDS011;8434;47.990;7.880;2022-09-29T04:21:51;3.00;;;1.80;;
16640;SDS011;8434;47.990;7.880;2022-09-29T04:24:35;1.97;;;1.70;;
16640;SDS011;8434;47.990;7.880;2022-09-29T04:27:21;2.80;;;2.50;;
16640;SDS011;8434;47.990;7.880;2022-09-29T04:30:07;2.93;;;2.23;;
16640;SDS011;8434;47.990;7.880;2022-09-29T04:32:52;2.63;;;2.20;;
16640;SDS011;8434;47.990;7.880;2022-09-29T04:35:39;2.23;;;1.80;;
16640;SDS011;8434;47.990;7.880;2022-09-29T04:38:24;6.53;;;3.63;;
16640;SDS011;8434;47.990;7.880;2022-09-29T04:41:09;3.90;;;2.47;;
16640;SDS011;8434;47.990;7.880;2022-09-29T04:43:54;2.77;;;2.20;;
16640;SDS011;8434;47.990;7.880;2022-09-29T04:46:39;6.00;;;2.60;;
16640;SDS011;8434;47.990;7.880;2022-09-29T04:49:24;4.53;;;2.73;;
16640;SDS011;8434;47.990;7.880;2022-09-29T04:52:11;5.80;;;3.60;;
16640;SDS011;8434;47.990;7.880;2022-09-29T04:54:56;7.70;;;4.93;;
16640;SDS011;8434;47.990;7.880;2022-09-29T04:57:41;7.00;;;4.03;;
16640;SDS011;8434;47.990;7.880;2022-09-29T05:00:27;5.20;;;4.23;;
16640;SDS011;8434;47.990;7.880;2022-09-29T05:03:12;7.97;;;4.10;;
16640;SDS011;8434;47.990;7.880;2022-09-29T05:05:56;7.30;;;3.57;;
16640;SDS011;8434;47.990;7.880;2022-09-29T05:08:43;5.00;;;3.60;;
16640;SDS011;8434;47.990;7.880;2022-09-29T05:11:27;4.67;;;3.60;;
16640;SDS011;8434;47.990;7.880;2022-09-29T05:14:13;4.60;;;3.50;;
16640;SDS011;8434;47.990;7.880;2022-09-29T05:16:58;2.33;;;2.10;;
16640;SDS011;8434;47.990;7.880;2022-09-29T05:19:43;2.03;;;1.50;;
16640;SDS011;8434;47.990;7.880;2022-09-29T05:22:28;4.93;;;1.70;;
16640;SDS011;8434;47.990;7.880;2022-09-29T05:25:14;4.13;;;2.20;;
16640;SDS011;8434;47.990;7.880;2022-09-29T05:27:59;3.97;;;2.50;;
16640;SDS011;8434;47.990;7.880;2022-09-29T05:30:44;3.50;;;2.20;;
16640;SDS011;8434;47.990;7.880;2022-09-29T05:33:29;2.60;;;2.10;;
16640;SDS011;8434;47.990;7.880;2022-09-29T05:36:14;3.47;;;2.40;;
16640;SDS011;8434;47.990;7.880;2022-09-29T05:38:59;2.50;;;2.30;;
16640;SDS011;8434;47.990;7.880;2022-09-29T05:41:45;2.67;;;2.43;;
16640;SDS011;8434;47.990;7.880;2022-09-29T05:44:31;2.87;;;2.53;;
16640;SDS011;8434;47.990;7.880;2022-09-29T05:47:17;2.63;;;2.43;;
16640;SDS011;8434;47.990;7.880;2022-09-29T05:50:02;2.60;;;2.40;;
16640;SDS011;8434;47.990;7.880;2022-09-29T05:52:47;3.77;;;2.90;;
16640;SDS011;8434;47.990;7.880;2022-09-29T05:55:33;4.17;;;2.43;;
16640;SDS011;8434;47.990;7.880;2022-09-29T05:58:20;2.50;;;1.70;;
16640;SDS011;8434;47.990;7.880;2022-09-29T06:01:05;2.30;;;2.07;;
16640;SDS011;8434;47.990;7.880;2022-09-29T06:03:51;4.53;;;2.50;;
16640;SDS011;8434;47.990;7.880;2022-09-29T06:06:36;2.57;;;2.23;;
16640;SDS011;8434;47.990;7.880;2022-09-29T06:09:22;7.83;;;2.43;;
16640;SDS011;8434;47.990;7.880;2022-09-29T06:12:07;2.50;;;2.07;;
16640;SDS011;8434;47.990;7.880;2022-09-29T06:14:54;2.70;;;2.50;;
16640;SDS011;8434;47.990;7.880;2022-09-29T06:17:39;4.33;;;1.80;;
16640;SDS011;8434;47.990;7.880;2022-09-29T06:20:24;4.27;;;2.20;;
16640;SDS011;8434;47.990;7.880;2022-09-29T06:23:09;4.00;;;2.27;;
16640;SDS011;8434;47.990;7.880;2022-09-29T06:25:54;4.40;;;2.60;;
16640;SDS011;8434;47.990;7.880;2022-09-29T06:28:39;2.90;;;2.63;;
16640;SDS011;8434;47.990;7.880;2022-09-29T06:31:26;4.00;;;3.20;;
16640;SDS011;8434;47.990;7.880;2022-09-29T06:34:12;2.87;;;2.43;;
16640;SDS011;8434;47.990;7.880;2022-09-29T06:36:57;2.97;;;2.33;;
16640;SDS011;8434;47.990;7.880;2022-09-29T06:39:59;3.90;;;2.50;;
16640;SDS011;8434;47.990;7.880;2022-09-29T06:42:44;2.50;;;2.30;;
16640;SDS011;8434;47.990;7.880;2022-09-29T06:45:29;2.67;;;2.30;;
16640;SDS011;8434;47.990;7.880;2022-09-29T06:48:15;2.87;;;2.10;;
16640;SDS011;8434;47.990;7.880;2022-09-29T06:51:00;4.53;;;2.60;;
16640;SDS011;8434;47.990;7.880;2022-09-29T06:53:45;3.90;;;2.50;;
16640;SDS011;8434;47.990;7.880;2022-09-29T06:56:30;2.53;;;2.33;;
16640;SDS011;8434;47.990;7.880;2022-09-29T06:59:16;4.30;;;2.60;;
16640;SDS011;8434;47.990;7.880;2022-09-29T07:02:01;2.60;;;2.20;;
16640;SDS011;8434;47.990;7.880;2022-09-29T07:04:48;3.07;;;2.10;;
16640;SDS011;8434;47.990;7.880;2022-09-29T07:07:33;5.33;;;2.37;;
16640;SDS011;8434;47.990;7.880;2022-09-29T07:10:18;2.27;;;2.07;;
16640;SDS011;8434;47.990;7.880;2022-09-29T07:13:03;2.03;;;1.83;;
16640;SDS011;8434;47.990;7.880;2022-09-29T07:15:49;2.60;;;2.40;;
16640;SDS011;8434;47.990;7.880;2022-09-29T07:18:34;4.57;;;2.47;;
16640;SDS011;8434;47.990;7.880;2022-09-29T07:21:21;3.00;;;2.40;;
16640;SDS011;8434;47.990;7.880;2022-09-29T07:24:06;2.47;;;2.30;;
16640;SDS011;8434;47.990;7.880;2022-09-29T07:26:52;2.60;;;2.40;;
16640;SDS011;8434;47.990;7.880;2022-09-29T07:29:37;2.57;;;2.30;;
16640;SDS011;8434;47.990;7.880;2022-09-29T07:32:25;2.47;;;1.70;;
16640;SDS011;8434;47.990;7.880;2022-09-29T07:35:18;3.07;;;2.10;;
16640;SDS011;8434;47.990;7.880;2022-09-29T07:38:04;2.10;;;1.90;;
16640;SDS011;8434;47.990;7.880;2022-09-29T07:40:49;2.30;;;1.67;;
16640;SDS011;8434;47.990;7.880;2022-09-29T07:43:33;3.20;;;1.70;;
16640;SDS011;8434;47.990;7.880;2022-09-29T07:46:18;1.73;;;1.27;;
16640;SDS011;8434;47.990;7.880;2022-09-29T07:49:03;3.13;;;1.50;;
16640;SDS011;8434;47.990;7.880;2022-09-29T07:51:49;1.73;;;1.40;;
16640;SDS011;8434;47.990;7.880;2022-09-29T07:54:36;3.23;;;1.63;;
16640;SDS011;8434;47.990;7.880;2022-09-29T07:57:21;3.33;;;1.67;;
16640;SDS011;8434;47.990;7.880;2022-09-29T08:00:06;3.07;;;1.57;;
16640;SDS011;8434;47.990;7.880;2022-09-29T08:02:52;3.00;;;2.57;;
16640;SDS011;8434;47.990;7.880;2022-09-29T08:05:37;1.80;;;1.10;;
16640;SDS011;8434;47.990;7.880;2022-09-29T08:08:22;2.07;;;1.87;;
16640;SDS011;8434;47.990;7.880;2022-09-29T08:11:09;2.00;;;1.57;;
16640;SDS011;8434;47.990;7.880;2022-09-29T08:13:55;1.90;;;1.23;;
16640;SDS011;8434;47.990;7.880;2022-09-29T08:16:40;3.63;;;2.07;;
16640;SDS011;8434;47.990;7.880;2022-09-29T08:19:25;2.77;;;1.23;;
16640;SDS011;8434;47.990;7.880;2022-09-29T08:22:11;3.23;;;1.50;;
16640;SDS011;8434;47.990;7.880;2022-09-29T08:24:55;1.63;;;1.53;;
16640;SDS011;8434;47.990;7.880;2022-09-29T08:27:43;1.80;;;1.53;;
16640;SDS011;8434;47.990;7.880;2022-09-29T08:30:28;2.77;;;1.83;;
16640;SDS011;8434;47.990;7.880;2022-09-29T08:33:13;1.50;;;1.40;;
16640;SDS011;8434;47.990;7.880;2022-09-29T08:35:59;2.80;;;1.90;;
16640;SDS011;8434;47.990;7.880;2022-09-29T08:38:47;3.07;;;1.40;;
16640;SDS011;8434;47.990;7.880;2022-09-29T08:41:35;1.50;;;1.40;;
16640;SDS011;8434;47.990;7.880;2022-09-29T08:44:28;2.10;;;1.50;;
16640;SDS011;8434;47.990;7.880;2022-09-29T08:47:17;2.40;;;1.30;;
16640;SDS011;8434;47.990;7.880;2022-09-29T08:50:04;1.83;;;1.40;;
16640;SDS011;8434;47.990;7.880;2022-09-29T08:52:54;2.23;;;2.03;;
16640;SDS011;8434;47.990;7.880;2022-09-29T08:55:41;3.03;;;1.50;;
16640;SDS011;8434;47.990;7.880;2022-09-29T08:58:27;2.77;;;1.30;;
16640;SDS011;8434;47.990;7.880;2022-09-29T09:01:17;1.73;;;1.20;;
16640;SDS011;8434;47.990;7.880;2022-09-29T09:04:07;1.93;;;0.73;;
16640;SDS011;8434;47.990;7.880;2022-09-29T09:06:59;1.80;;;1.17;;
16640;SDS011;8434;47.990;7.880;2022-09-29T09:09:48;1.13;;;1.00;;
16640;SDS011;8434;47.990;7.880;2022-09-29T09:12:44;1.00;;;0.90;;
16640;SDS011;8434;47.990;7.880;2022-09-29T09:15:36;1.47;;;0.90;;
16640;SDS011;8434;47.990;7.880;2022-09-29T09:18:29;1.00;;;0.90;;
16640;SDS011;8434;47.990;7.880;2022-09-29T09:21:22;1.70;;;1.30;;
16640;SDS011;8434;47.990;7.880;2022-09-29T09:24:12;1.10;;;1.10;;
16640;SDS011;8434;47.990;7.880;2022-09-29T09:26:59;0.93;;;0.93;;
16640;SDS011;8434;47.990;7.880;2022-09-29T09:29:44;1.13;;;1.03;;
16640;SDS011;8434;47.990;7.880;2022-09-29T09:32:33;1.57;;;1.00;;
16640;SDS011;8434;47.990;7.880;2022-09-29T09:35:26;2.90;;;1.30;;
16640;SDS011;8434;47.990;7.880;2022-09-29T09:38:12;2.20;;;1.33;;
16640;SDS011;8434;47.990;7.880;2022-09-29T09:40:59;3.23;;;1.40;;
16640;SDS011;8434;47.990;7.880;2022-09-29T09:43:46;2.60;;;1.33;;
16640;SDS011;8434;47.990;7.880;2022-09-29T09:46:34;4.67;;;1.30;;
16640;SDS011;8434;47.990;7.880;2022-09-29T09:49:22;5.53;;;2.40;;
16640;SDS011;8434;47.990;7.880;2022-09-29T09:52:11;2.40;;;1.30;;
16640;SDS011;8434;47.990;7.880;2022-09-29T09:54:57;1.57;;;1.30;;
16640;SDS011;8434;47.990;7.880;2022-09-29T10:00:46;2.37;;;1.00;;
16640;SDS011;8434;47.990;7.880;2022-09-29T10:03:33;1.07;;;0.97;;
16640;SDS011;8434;47.990;7.880;2022-09-29T10:06:20;0.83;;;0.83;;
16640;SDS011;8434;47.990;7.880;2022-09-29T10:09:08;0.73;;;0.73;;
16640;SDS011;8434;47.990;7.880;2022-09-29T10:11:53;0.80;;;0.80;;
16640;SDS011;8434;47.990;7.880;2022-09-29T10:14:38;0.93;;;0.83;;
16640;SDS011;8434;47.990;7.880;2022-09-29T10:17:24;1.83;;;0.90;;
16640;SDS011;8434;47.990;7.880;2022-09-29T10:20:10;0.63;;;0.40;;
16640;SDS011;8434;47.990;7.880;2022-09-29T10:23:00;1.03;;;0.70;;
16640;SDS011;8434;47.990;7.880;2022-09-29T10:26:05;1.20;;;0.57;;
16640;SDS011;8434;47.990;7.880;2022-09-29T10:28:52;0.97;;;0.70;;
16640;SDS011;8434;47.990;7.880;2022-09-29T10:31:38;0.53;;;0.53;;
16640;SDS011;8434;47.990;7.880;2022-09-29T10:34:23;1.60;;;0.60;;
16640;SDS011;8434;47.990;7.880;2022-09-29T10:37:17;0.93;;;0.90;;
16640;SDS011;8434;47.990;7.880;2022-09-29T10:40:12;1.47;;;0.97;;
16640;SDS011;8434;47.990;7.880;2022-09-29T10:42:59;1.50;;;0.80;;
16640;SDS011;8434;47.990;7.880;2022-09-29T10:45:59;1.10;;;0.83;;
16640;SDS011;8434;47.990;7.880;2022-09-29T10:48:44;3.13;;;1.10;;
16640;SDS011;8434;47.990;7.880;2022-09-29T10:51:29;1.77;;;1.13;;
16640;SDS011;8434;47.990;7.880;2022-09-29T10:54:14;3.67;;;1.30;;
16640;SDS011;8434;47.990;7.880;2022-09-29T10:56:59;1.30;;;1.10;;
16640;SDS011;8434;47.990;7.880;2022-09-29T10:59:57;1.73;;;1.03;;
16640;SDS011;8434;47.990;7.880;2022-09-29T11:02:42;3.03;;;1.80;;
16640;SDS011;8434;47.990;7.880;2022-09-29T11:05:27;3.33;;;1.40;;
16640;SDS011;8434;47.990;7.880;2022-09-29T11:08:12;1.97;;;1.70;;
16640;SDS011;8434;47.990;7.880;2022-09-29T11:11:04;2.20;;;1.80;;
16640;SDS011;8434;47.990;7.880;2022-09-29T11:13:50;2.20;;;2.00;;
16640;SDS011;8434;47.990;7.880;2022-09-29T11:16:37;3.00;;;2.00;;
16640;SDS011;8434;47.990;7.880;2022-09-29T11:19:23;4.90;;;1.83;;
16640;SDS011;8434;47.990;7.880;2022-09-29T11:22:18;2.40;;;2.03;;
16640;SDS011;8434;47.990;7.880;2022-09-29T11:25:20;2.93;;;1.87;;
16640;SDS011;8434;47.990;7.880;2022-09-29T11:28:14;1.50;;;1.40;;
16640;SDS011;8434;47.990;7.880;2022-09-29T11:31:07;1.33;;;1.23;;
16640;SDS011;8434;47.990;7.880;2022-09-29T11:34:01;2.00;;;1.73;;
16640;SDS011;8434;47.990;7.880;2022-09-29T11:36:50;2.87;;;1.40;;
16640;SDS011;8434;47.990;7.880;2022-09-29T11:39:40;2.27;;;1.40;;
16640;SDS011;8434;47.990;7.880;2022-09-29T11:42:35;2.50;;;1.80;;
16640;SDS011;8434;47.990;7.880;2022-09-29T11:45:27;1.60;;;1.23;;
16640;SDS011;8434;47.990;7.880;2022-09-29T11:51:19;1.57;;;1.07;;
16640;SDS011;8434;47.990;7.880;2022-09-29T11:54:14;1.50;;;1.20;;
16640;SDS011;8434;47.990;7.880;2022-09-29T11:57:03;1.37;;;1.17;;
16640;SDS011;8434;47.990;7.880;2022-09-29T11:59:58;1.20;;;1.00;;
16640;SDS011;8434;47.990;7.880;2022-09-29T12:05:53;1.70;;;1.20;;
16640;SDS011;8434;47.990;7.880;2022-09-29T12:08:45;1.50;;;1.10;;
16640;SDS011;8434;47.990;7.880;2022-09-29T12:11:37;1.53;;;1.10;;
16640;SDS011;8434;47.990;7.880;2022-09-29T12:14:27;1.73;;;1.30;;
16640;SDS011;8434;47.990;7.880;2022-09-29T12:17:16;1.37;;;1.10;;
16640;SDS011;8434;47.990;7.880;2022-09-29T12:20:02;1.30;;;1.20;;
16640;SDS011;8434;47.990;7.880;2022-09-29T12:22:49;1.87;;;1.27;;
16640;SDS011;8434;47.990;7.880;2022-09-29T12:25:36;1.40;;;1.10;;
16640;SDS011;8434;47.990;7.880;2022-09-29T12:28:24;1.77;;;1.23;;
16640;SDS011;8434;47.990;7.880;2022-09-29T12:31:11;2.90;;;1.10;;
16640;SDS011;8434;47.990;7.880;2022-09-29T12:33:59;1.70;;;1.60;;
16640;SDS011;8434;47.990;7.880;2022-09-29T12:36:46;1.20;;;1.10;;
16640;SDS011;8434;47.990;7.880;2022-09-29T12:39:38;1.67;;;1.17;;
16640;SDS011;8434;47.990;7.880;2022-09-29T12:42:27;1.67;;;1.50;;
16640;SDS011;8434;47.990;7.880;2022-09-29T12:45:18;2.13;;;1.53;;
16640;SDS011;8434;47.990;7.880;2022-09-29T12:48:13;1.60;;;1.50;;
16640;SDS011;8434;47.990;7.880;2022-09-29T12:51:00;1.50;;;1.30;;
16640;SDS011;8434;47.990;7.880;2022-09-29T12:53:49;1.47;;;1.27;;
16640;SDS011;8434;47.990;7.880;2022-09-29T12:56:35;1.50;;;1.40;;
16640;SDS011;8434;47.990;7.880;2022-09-29T12:59:28;2.77;;;1.50;;
16640;SDS011;8434;47.990;7.880;2022-09-29T13:02:22;1.73;;;1.50;;
16640;SDS011;8434;47.990;7.880;2022-09-29T13:05:22;3.70;;;2.27;;
16640;SDS011;8434;47.990;7.880;2022-09-29T13:08:33;1.60;;;1.50;;
16640;SDS011;8434;47.990;7.880;2022-09-29T13:11:35;2.83;;;1.20;;
16640;SDS011;8434;47.990;7.880;2022-09-29T13:14:27;1.97;;;1.20;;
16640;SDS011;8434;47.990;7.880;2022-09-29T13:17:20;1.50;;;1.37;;
16640;SDS011;8434;47.990;7.880;2022-09-29T13:26:27;3.77;;;1.40;;
16640;SDS011;8434;47.990;7.880;2022-09-29T13:29:15;1.73;;;1.30;;
16640;SDS011;8434;47.990;7.880;2022-09-29T13:32:03;2.20;;;1.10;;
16640;SDS011;8434;47.990;7.880;2022-09-29T13:34:51;1.87;;;1.60;;
16640;SDS011;8434;47.990;7.880;2022-09-29T13:37:41;2.50;;;1.63;;
16640;SDS011;8434;47.990;7.880;2022-09-29T13:40:28;1.63;;;1.27;;
16640;SDS011;8434;47.990;7.880;2022-09-29T13:46:26;1.40;;;1.30;;
16640;SDS011;8434;47.990;7.880;2022-09-29T13:49:14;1.87;;;1.50;;
16640;SDS011;8434;47.990;7.880;2022-09-29T13:52:00;1.20;;;1.10;;
16640;SDS011;8434;47.990;7.880;2022-09-29T13:54:55;2.57;;;2.00;;
16640;SDS011;8434;47.990;7.880;2022-09-29T13:57:49;1.80;;;1.33;;
16640;SDS011;8434;47.990;7.880;2022-09-29T14:00:35;2.70;;;1.33;;
16640;SDS011;8434;47.990;7.880;2022-09-29T14:03:26;1.87;;;1.50;;
16640;SDS011;8434;47.990;7.880;2022-09-29T14:06:14;1.53;;;1.20;;
16640;SDS011;8434;47.990;7.880;2022-09-29T14:09:00;1.53;;;1.30;;
16640;SDS011;8434;47.990;7.880;2022-09-29T14:11:46;3.60;;;1.63;;
16640;SDS011;8434;47.990;7.880;2022-09-29T14:14:32;1.57;;;1.47;;
16640;SDS011;8434;47.990;7.880;2022-09-29T14:17:18;2.03;;;1.70;;
16640;SDS011;8434;47.990;7.880;2022-09-29T14:20:05;1.97;;;1.77;;
16640;SDS011;8434;47.990;7.880;2022-09-29T14:22:58;2.00;;;1.80;;
16640;SDS011;8434;47.990;7.880;2022-09-29T14:25:47;2.53;;;2.10;;
16640;SDS011;8434;47.990;7.880;2022-09-29T14:28:37;3.03;;;1.87;;
16640;SDS011;8434;47.990;7.880;2022-09-29T14:31:25;1.37;;;1.27;;
16640;SDS011;8434;47.990;7.880;2022-09-29T14:34:10;3.93;;;1.50;;
16640;SDS011;8434;47.990;7.880;2022-09-29T14:36:59;2.40;;;1.70;;
16640;SDS011;8434;47.990;7.880;2022-09-29T14:39:46;2.63;;;1.30;;
16640;SDS011;8434;47.990;7.880;2022-09-29T14:42:45;2.70;;;1.50;;
16640;SDS011;8434;47.990;7.880;2022-09-29T14:45:31;1.77;;;1.63;;
16640;SDS011;8434;47.990;7.880;2022-09-29T14:48:39;3.10;;;1.90;;
16640;SDS011;8434;47.990;7.880;2022-09-29T14:51:48;2.13;;;1.63;;
16640;SDS011;8434;47.990;7.880;2022-09-29T14:54:45;2.33;;;1.50;;
16640;SDS011;8434;47.990;7.880;2022-09-29T14:57:38;1.40;;;1.20;;
16640;SDS011;8434;47.990;7.880;2022-09-29T15:00:27;2.60;;;1.70;;
16640;SDS011;8434;47.990;7.880;2022-09-29T15:03:17;2.70;;;1.30;;
16640;SDS011;8434;47.990;7.880;2022-09-29T15:06:10;3.63;;;1.60;;
16640;SDS011;8434;47.990;7.880;2022-09-29T15:08:56;1.40;;;1.27;;
16640;SDS011;8434;47.990;7.880;2022-09-29T15:11:42;1.40;;;1.30;;
16640;SDS011;8434;47.990;7.880;2022-09-29T15:14:30;2.07;;;1.30;;
16640;SDS011;8434;47.990;7.880;2022-09-29T15:17:18;1.40;;;1.30;;
16640;SDS011;8434;47.990;7.880;2022-09-29T15:20:08;1.70;;;1.60;;
16640;SDS011;8434;47.990;7.880;2022-09-29T15:23:00;2.33;;;1.43;;
16640;SDS011;8434;47.990;7.880;2022-09-29T15:25:48;1.70;;;1.60;;
16640;SDS011;8434;47.990;7.880;2022-09-29T15:28:34;2.70;;;1.80;;
16640;SDS011;8434;47.990;7.880;2022-09-29T15:31:26;2.30;;;1.63;;
16640;SDS011;8434;47.990;7.880;2022-09-29T15:34:13;4.00;;;1.70;;
16640;SDS011;8434;47.990;7.880;2022-09-29T15:37:00;1.57;;;1.47;;
16640;SDS011;8434;47.990;7.880;2022-09-29T15:39:49;2.13;;;1.67;;
16640;SDS011;8434;47.990;7.880;2022-09-29T15:42:36;2.43;;;2.00;;
16640;SDS011;8434;47.990;7.880;2022-09-29T15:45:23;1.70;;;1.60;;
16640;SDS011;8434;47.990;7.880;2022-09-29T15:48:11;2.83;;;1.60;;
16640;SDS011;8434;47.990;7.880;2022-09-29T15:50:59;2.73;;;1.50;;
16640;SDS011;8434;47.990;7.880;2022-09-29T15:53:44;2.60;;;1.77;;
16640;SDS011;8434;47.990;7.880;2022-09-29T15:56:29;4.23;;;1.53;;
16640;SDS011;8434;47.990;7.880;2022-09-29T15:59:16;1.53;;;1.43;;
16640;SDS011;8434;47.990;7.880;2022-09-29T16:02:01;4.00;;;1.70;;
16640;SDS011;8434;47.990;7.880;2022-09-29T16:04:51;1.77;;;1.67;;
16640;SDS011;8434;47.990;7.880;2022-09-29T16:07:37;3.80;;;1.70;;
16640;SDS011;8434;47.990;7.880;2022-09-29T16:10:26;3.63;;;1.83;;
16640;SDS011;8434;47.990;7.880;2022-09-29T16:13:14;2.27;;;1.80;;
16640;SDS011;8434;47.990;7.880;2022-09-29T16:16:04;3.40;;;1.60;;
16640;SDS011;8434;47.990;7.880;2022-09-29T16:18:49;1.87;;;1.70;;
16640;SDS011;8434;47.990;7.880;2022-09-29T16:21:37;2.70;;;1.53;;
16640;SDS011;8434;47.990;7.880;2022-09-29T16:24:23;1.83;;;1.63;;
16640;SDS011;8434;47.990;7.880;2022-09-29T16:27:28;2.10;;;1.43;;
16640;SDS011;8434;47.990;7.880;2022-09-29T16:30:24;5.33;;;3.30;;
16640;SDS011;8434;47.990;7.880;2022-09-29T16:33:11;2.50;;;2.30;;
16640;SDS011;8434;47.990;7.880;2022-09-29T16:35:59;2.30;;;2.10;;
16640;SDS011;8434;47.990;7.880;2022-09-29T16:38:46;2.60;;;2.40;;
16640;SDS011;8434;47.990;7.880;2022-09-29T16:41:34;4.93;;;4.43;;
16640;SDS011;8434;47.990;7.880;2022-09-29T16:44:24;3.57;;;2.90;;
16640;SDS011;8434;47.990;7.880;2022-09-29T16:47:12;5.00;;;3.10;;
16640;SDS011;8434;47.990;7.880;2022-09-29T16:49:58;3.77;;;3.47;;
16640;SDS011;8434;47.990;7.880;2022-09-29T16:52:45;4.83;;;3.20;;
16640;SDS011;8434;47.990;7.880;2022-09-29T16:55:32;3.40;;;2.77;;
16640;SDS011;8434;47.990;7.880;2022-09-29T16:58:17;4.77;;;3.20;;
16640;SDS011;8434;47.990;7.880;2022-09-29T17:01:02;4.47;;;3.50;;
16640;SDS011;8434;47.990;7.880;2022-09-29T17:03:47;3.47;;;3.17;;
16640;SDS011;8434;47.990;7.880;2022-09-29T17:06:32;4.00;;;3.23;;
16640;SDS011;8434;47.990;7.880;2022-09-29T17:09:19;3.37;;;2.70;;
16640;SDS011;8434;47.990;7.880;2022-09-29T17:12:06;2.80;;;2.60;;
16640;SDS011;8434;47.990;7.880;2022-09-29T17:14:51;5.37;;;4.00;;
16640;SDS011;8434;47.990;7.880;2022-09-29T17:17:35;5.97;;;2.47;;
16640;SDS011;8434;47.990;7.880;2022-09-29T17:20:21;4.40;;;2.00;;
16640;SDS011;8434;47.990;7.880;2022-09-29T17:23:11;3.93;;;3.23;;
16640;SDS011;8434;47.990;7.880;2022-09-29T17:25:56;7.43;;;5.87;;